Create Custom Reports and Graphics: Custom Report

Bell Hill-West

Current Conditions

6/19/21 5:15 PM (-07:00)
Updated Every 15 Minutes
Temp 98.1 °F   4.7
RH 10 %   1
Dew Pt 32.6 °F   6.8
Wet Bulb 57.6 °F   2.5
Wind Dir SW | 218 °
Wind Spd 7.9 mph   1.4
Wind Gust 14.5 mph   0.7
Solar Rad 638 W/m2   11
BatVolt 12.9 V   0.0

Today & Yesterday

Bell Hill-West

6/19/21 5:15 PM (-07:00)
Updated Every 15 Minutes
Daily Max Temp 103.5 °F   1.2
Time of Max Temp 1427
Daily Min Temp 58.9 °F   2.9
Time of Min Temp 0601
Daily Max Wind 15.5 mph   1.7
Time of Max Wind 1258
Max Wind Dir S | 178 °
Daily Rain 0.00 In
Daily ETo 0.282 in   0.012
Yesterday's Max Temp 104.7 °F
Yesterday’s Min Temp 56.0 °F
Yesterday's Max Wind 14.5 mph
Yesterday's Rainfall 0.00 In
Yesterday's ETo 0.32 In

Last 48 Hours

Bell Hill-West

Hourly Data | America/Los_Angeles
as of 6/19/21 5:26 PM PDT
Date & Time Temp (°F) RH (%) Dew Pt (°F) Wet Bulb (°F) Wind Dir (°) Wind Spd (mph) Wind Gust (mph) Wind Gst Dir (°) Solar Rad (W/m2) Latest Rain (In) Daily Rain (In) Daily Min Temp (°F) Daily Max Temp (°F) Daily ETo (in)
6/19/21 - 1700 98.9 12 36.5 58.7 SW | 217 8.7 14.2 SSW | 209 751 0.00 0.00 58.9 103.5 0.282
6/19/21 - 1600 101.2 11 37.8 59.4 SSW | 196 8.1 14.8 S | 191 907 0.00 0.00 58.9 103.5 0.251
6/19/21 - 1500 102.1 11 37.8 59.5 SSW | 205 6.9 13.8 S | 183 1,017 0.00 0.00 58.9 103.5 0.215
6/19/21 - 1400 101.7 10 34.3 58.5 SW | 220 5.9 14.2 SW | 218 1,072 0.00 0.00 58.9 102.5 0.177
6/19/21 - 1300 98.7 12 37.4 59.0 NE | 50 5.8 15.5 S | 178 1,056 0.00 0.00 58.9 102.1 0.139
6/19/21 - 1200 93.9 20 46.4 61.4 N | 354 6.6 14.5 NNE | 27 981 0.00 0.00 58.9 96.3 0.102
6/19/21 - 1100 88.2 28 50.8 62.5 N | 4 5.3 10.8 NNW | 346 855 0.00 0.00 58.9 92.2 0.067
6/19/21 - 1000 82.6 34 50.9 61.6 N | 349 2.0 5.8 NNW | 331 686 0.00 0.00 58.9 85.9 0.040
6/19/21 - 0900 77.6 37 49.4 59.8 N | 350 1.8 4.8 NNW | 348 486 0.00 0.00 58.9 79.0 0.020
6/19/21 - 0800 69.7 46 47.8 56.9 S | 179 0.7 3.1 S | 175 281 0.00 0.00 58.9 75.3 0.008
6/19/21 - 0700 60.8 57 45.5 52.7 S | 183 2.3 4.1 S | 188 46 0.00 0.00 58.9 67.5 0.002
6/19/21 - 0600 59.7 57 44.5 51.8 S | 183 2.5 3.8 SSW | 192 3 0.00 0.00 59.0 67.5 0.001
6/19/21 - 0500 60.8 54 43.9 52.0 S | 181 2.2 4.1 S | 189 0 0.00 0.00 60.0 67.5 0.001
6/19/21 - 0400 62.5 49 43.3 52.3 S | 181 2.3 3.8 S | 188 0 0.00 0.00 61.6 67.5 0.001
6/19/21 - 0300 63.9 44 41.7 52.0 S | 188 3.2 4.8 SSW | 200 0 0.00 0.00 62.7 67.5 0.001
6/19/21 - 0200 66.0 40 40.8 52.4 S | 189 2.9 4.4 SSW | 193 0 0.00 0.00 64.8 67.5 0.001
6/19/21 - 0100 68.1 38 41.4 53.4 S | 187 3.0 5.4 S | 185 0 0.00 0.00 56.0 104.7 0.318
6/19/21 - 0000 70.6 37 43.0 54.8 S | 189 2.0 4.8 S | 182 0 0.00 0.00 56.0 104.7 0.317
6/18/21 - 2300 74.2 33 43.0 55.9 SSW | 194 3.1 4.4 SSW | 212 0 0.00 0.00 56.0 104.7 0.317
6/18/21 - 2200 84.3 23 42.9 58.2 S | 185 3.5 7.4 SSW | 196 0 0.00 0.00 56.0 104.7 0.316
6/18/21 - 2100 88.1 21 42.5 58.9 SW | 222 2.0 5.8 SW | 217 20 0.00 0.00 56.0 104.7 0.314
6/18/21 - 2000 94.6 15 39.9 59.1 WSW | 248 3.0 9.1 W | 281 159 0.00 0.00 56.0 104.7 0.314
6/18/21 - 1900 97.7 15 42.4 60.4 WSW | 258 6.5 14.5 WSW | 255 350 0.00 0.00 56.0 104.7 0.309
6/18/21 - 1800 101.5 14 43.2 61.1 WSW | 246 6.8 13.8 SSW | 194 553 0.00 0.00 56.0 104.7 0.293
6/18/21 - 1700 103.9 8 30.7 58.0 SW | 236 5.2 11.5 S | 185 758 0.00 0.00 56.0 104.7 0.270
6/18/21 - 1600 103.8 7 28.2 57.4 SSW | 207 5.7 13.8 SW | 219 924 0.00 0.00 56.0 104.6 0.242
6/18/21 - 1500 102.8 10 35.0 58.9 SW | 236 3.9 12.5 S | 182 1,024 0.00 0.00 56.0 104.4 0.208
6/18/21 - 1400 99.8 13 40.9 60.1 N | 358 5.4 11.8 NNW | 342 1,061 0.00 0.00 56.0 101.6 0.173
6/18/21 - 1300 96.7 16 43.5 60.6 N | 357 5.9 10.5 N | 0 1,058 0.00 0.00 56.0 98.8 0.136
6/18/21 - 1200 91.3 23 48.3 61.9 N | 359 5.5 9.5 NNE | 21 995 0.00 0.00 56.0 94.1 0.099
6/18/21 - 1100 86.7 29 51.1 62.4 N | 355 3.9 7.4 NW | 322 871 0.00 0.00 56.0 89.3 0.066
6/18/21 - 1000 81.2 33 49.2 60.5 N | 9 2.1 6.1 NNE | 21 699 0.00 0.00 56.0 84.8 0.039
6/18/21 - 0900 76.0 39 49.3 59.4 N | 351 1.4 4.4 NNE | 22 499 0.00 0.00 56.0 78.6 0.020
6/18/21 - 0800 68.0 48 47.6 56.3 S | 188 0.5 2.7 SSW | 192 290 0.00 0.00 56.0 73.2 0.007
6/18/21 - 0700 58.0 64 45.8 51.8 S | 188 2.5 3.8 S | 185 46 0.00 0.00 56.0 64.6 0.002
6/18/21 - 0600 56.7 64 44.6 50.7 S | 186 2.4 3.8 SSW | 203 3 0.00 0.00 56.0 64.6 0.001
6/18/21 - 0500 58.0 61 44.5 51.1 S | 183 2.4 4.1 S | 180 0 0.00 0.00 57.6 64.6 0.001
6/18/21 - 0400 59.1 58 44.3 51.5 S | 188 2.9 4.1 SSW | 192 0 0.00 0.00 57.9 64.6 0.001
6/18/21 - 0300 61.3 52 43.7 52.0 S | 187 2.9 3.8 S | 187 0 0.00 0.00 60.1 64.6 0.001
6/18/21 - 0200 62.8 49 43.4 52.4 SSW | 192 3.2 4.8 SSW | 203 0 0.00 0.00 61.7 64.6 0.001
6/18/21 - 0100 64.9 44 42.4 52.7 S | 191 2.6 4.1 S | 191 0 0.00 0.00 52.4 101.9 0.318
6/18/21 - 0000 67.9 37 41.0 53.0 S | 190 3.1 4.4 S | 171 0 0.00 0.00 52.4 101.9 0.318
6/17/21 - 2300 73.5 31 41.3 54.9 S | 187 3.1 5.1 S | 180 0 0.00 0.00 52.4 101.9 0.317
6/17/21 - 2200 77.0 30 42.8 56.5 S | 179 0.8 5.4 S | 189 0 0.00 0.00 52.4 101.9 0.316
6/17/21 - 2100 84.9 22 41.5 57.8 SSW | 212 3.0 7.4 SW | 226 21 0.00 0.00 52.4 101.9 0.316
6/17/21 - 2000 90.6 19 42.8 59.4 WSW | 240 4.9 11.5 SW | 221 165 0.00 0.00 52.4 101.9 0.315
6/17/21 - 1900 95.0 16 42.4 60.0 WSW | 249 6.2 13.2 WSW | 239 368 0.00 0.00 52.4 101.9 0.308
6/17/21 - 1800 98.4 13 39.8 59.6 WSW | 255 6.7 13.2 WSW | 257 573 0.00 0.00 52.4 101.9 0.292
6/17/21 - 1700 100.8 11 36.4 58.9 WSW | 253 5.7 12.1 SW | 230 766 0.00 0.00 52.4 101.9 0.269
Max 103.9 64 51.1 62.5 - 8.7 15.5 - 1,072 0.00 0.00 64.8 104.7 0.318
Avg 81.4 31 42.6 56.9 - 3.9 8.0 - 395 0.00 - - - -
Min 56.7 7 28.2 50.7 - 0.5 2.7 - 0 0.00 0.00 52.4 64.6 0.001
Total - - - - - - - - - 0.00 - - - -

Last 30 Days

Bell Hill-West

Daily Data | America/Los_Angeles
as of 6/19/21 5:26 PM PDT
Date Daily Max Temp (°F) Time of Max Temp Daily Min Temp (°F) Time of Min Temp Daily Rain (In) Monthly Rain (In) Seasonal Rainfall (In) Wind Spd (mph) Daily Max Wind (mph) Time of Max Wind Max Wind Dir (°) Daily ETo (in) 7 Day ETo (in) Daily Solar Rad (Cal/cm2) Dew Pt (°F) Max RH (%) Min RH (%) Hrs 70-85F (hrs) Hrs > 95F (hrs) Powdery Mildew Stress (pts) GDDs (DL) GDDs (Mx/Mn) Seas GDDs (DL) Seas GDDs (Smpl) Hrs <= 32F (hrs) Hrs <= 28F (hrs) Chilling <=45F (hrs) Chill Hrs 32-45F (hrs) Utah Chilling (Units) Degree Hrs (hrs) Max 1 Min Rain (In) Max 1 Min Rain Time Max 15 Min Rain (In) Max 15 Min Precip Time Max 60 Min Rain (In) Max 60 Min Rain Time Bat Volt Min Day (V)
6/18/21 104.7 1600 56.0 0516 0.00 0.00 10.76 3.6 14.5 1805 WSW | 255 0.318 1.94 801 42.8 67 6 2.55 7.31 50 31.0 30.3 1,013 856 0.0 0.0 0.0 0.0 -18.0 419.3 - - - - - - 12.3
6/17/21 101.9 1555 52.4 0538 0.00 0.00 10.76 3.5 13.2 1721 WSW | 257 0.318 1.85 821 41.0 70 6 2.80 5.84 60 28.0 27.1 982 826 0.0 0.0 0.0 0.0 -16.0 366.0 - - - - - - 12.3
6/16/21 95.6 1626 46.1 0524 0.00 0.00 10.76 2.9 21.9 1513 W | 272 0.285 1.76 799 41.8 85 10 3.29 0.35 70 22.1 20.9 954 799 0.0 0.0 0.0 0.0 -16.5 267.4 - - - - - - 12.3
6/15/21 82.8 1520 45.6 0556 0.00 0.00 10.76 3.8 17.2 1657 WSW | 256 0.270 1.71 815 41.4 83 14 8.93 0.00 80 14.5 14.2 932 778 0.0 0.0 0.0 0.0 0.5 115.5 - - - - - - 12.3
6/14/21 75.8 1431 53.7 0059 0.00 0.00 10.76 4.3 17.8 1732 WSW | 253 0.249 1.67 782 47.9 90 27 7.80 0.00 60 15.2 14.8 918 764 0.0 0.0 0.0 0.0 0.0 72.2 - - - - - - 12.3
6/13/21 81.0 1501 52.2 0554 0.00 0.00 10.76 4.9 17.8 1431 SSW | 209 0.255 1.66 788 54.1 97 33 8.84 0.00 40 17.0 16.6 903 749 0.0 0.0 0.0 0.0 -15.0 108.6 - - - - - - 12.3
6/12/21 83.2 1453 53.3 0242 0.00 0.00 10.76 3.5 16.5 1307 SW | 222 0.242 1.70 736 54.1 86 35 10.86 0.00 20 18.7 18.2 886 732 0.0 0.0 0.0 0.0 -16.0 148.3 - - - - - - 12.3
6/11/21 75.2 1534 45.6 0559 0.00 0.00 10.76 4.0 15.5 1412 SSE | 166 0.229 1.74 715 39.3 80 27 5.24 0.00 0 11.7 10.4 867 714 0.0 0.0 0.0 0.0 0.0 48.4 - - - - - - 12.3
6/10/21 73.2 1641 37.1 0532 0.00 0.00 10.76 3.0 19.8 1648 SW | 216 0.233 1.82 815 33.8 92 10 1.74 0.00 0 7.9 5.2 855 704 0.0 0.0 6.1 6.1 1.5 21.7 - - - - - - 12.2
6/9/21 67.0 1440 38.7 0549 0.00 0.00 10.76 4.3 19.5 1523 W | 272 0.229 1.90 825 36.5 89 25 0.00 0.00 0 5.8 2.8 847 698 0.0 0.0 6.6 6.6 3.5 1.4 - - - - - - 12.3
6/8/21 67.6 1541 44.7 0537 0.00 0.00 10.76 4.8 18.5 1212 SW | 229 0.231 1.97 822 36.4 78 25 0.00 0.00 10 6.1 6.1 841 696 0.0 0.0 0.3 0.3 3.5 3.5 - - - - - - 12.3
6/7/21 72.9 1317 41.1 0600 0.00 0.00 10.76 5.4 21.9 1912 W | 264 0.246 2.07 783 35.4 77 16 2.48 0.00 20 8.4 7.0 835 689 0.0 0.0 3.1 3.1 3.0 27.4 - - - - - - 12.3
6/6/21 83.5 1321 49.2 0522 0.00 0.00 10.76 4.5 20.9 1722 W | 268 0.288 2.13 807 38.6 74 12 9.90 0.00 30 15.7 16.4 827 682 0.0 0.0 0.0 0.0 0.5 135.4 - - - - - - 12.3
6/5/21 89.9 1621 52.1 0554 0.00 0.00 10.76 3.3 17.2 1532 WSW | 242 0.284 2.13 781 40.4 65 13 3.88 0.00 10 20.7 21.0 811 666 0.0 0.0 0.0 0.0 0.0 208.7 - - - - - - 12.2
6/4/21 89.9 1417 54.2 0603 0.00 0.00 10.76 4.3 18.8 1641 SW | 229 0.307 2.14 801 44.4 66 22 4.57 0.00 20 23.2 22.1 790 645 0.0 0.0 0.0 0.0 -17.5 245.8 - - - - - - 12.3
6/3/21 95.5 1424 57.7 0609 0.00 0.00 10.76 3.6 20.2 1523 NW | 324 0.312 2.09 790 44.8 70 11 3.52 0.34 30 26.8 26.6 767 623 0.0 0.0 0.0 0.0 -18.0 308.3 - - - - - - 12.2
6/2/21 95.1 1542 54.1 0550 0.00 0.00 10.76 3.7 16.8 1438 SW | 228 0.304 2.05 785 48.3 75 17 4.13 0.02 40 26.3 24.6 740 596 0.0 0.0 0.0 0.0 -18.0 315.7 - - - - - - 12.2
6/1/21 99.7 1258 57.6 0610 0.00 0.00 10.76 4.4 16.8 1516 S | 183 0.330 1.99 787 42.7 63 7 2.84 5.65 50 29.4 28.6 714 572 0.0 0.0 0.0 0.0 -17.5 370.1 - - - - - - 12.2
5/31/21 101.0 1533 53.9 0539 0.00 0.01 10.76 3.4 18.2 1601 S | 186 0.303 1.90 784 42.0 70 10 2.87 5.70 60 28.1 27.5 685 543 0.0 0.0 0.0 0.0 -18.0 360.4 - - - - - - 12.2
5/30/21 95.5 1516 50.1 0552 0.00 0.01 10.76 3.4 16.2 1711 W | 264 0.296 1.86 791 41.0 69 10 2.89 0.41 70 23.5 22.8 657 516 0.0 0.0 0.0 0.0 -14.5 281.6 - - - - - - 12.2
5/29/21 87.2 1538 49.7 0607 0.00 0.01 10.76 4.3 16.8 1906 SW | 220 0.286 1.80 777 43.6 76 17 4.42 0.00 80 19.7 18.5 633 493 0.0 0.0 0.0 0.0 0.0 197.7 - - - - - - 12.3
5/28/21 86.2 1617 47.5 0555 0.00 0.01 10.76 3.3 18.2 1640 SW | 229 0.265 1.72 770 45.3 91 21 5.42 0.00 90 18.0 16.9 613 474 0.0 0.0 0.0 0.0 0.0 174.0 - - - - - - 12.2
5/27/21 80.5 1422 42.4 0553 0.00 0.01 10.76 4.4 18.2 1705 WSW | 241 0.264 1.67 783 42.1 82 17 9.88 0.00 100 14.7 11.4 595 458 0.0 0.0 3.9 3.9 0.0 116.5 - - - - - - 12.3
5/26/21 83.6 1518 42.7 0545 0.00 0.01 10.76 3.4 16.5 1707 W | 274 0.249 1.62 744 40.4 89 17 8.62 0.00 100 13.3 13.1 581 446 0.0 0.0 3.2 3.2 1.0 117.9 - - - - - - 12.3
5/25/21 75.4 1436 44.7 0535 0.00 0.01 10.76 4.1 16.5 1619 SW | 236 0.242 1.60 786 44.5 93 29 6.03 0.00 100 11.0 10.1 567 433 0.0 0.0 0.2 0.2 1.0 55.1 - - - - - - 12.2
5/24/21 80.5 1451 42.7 0536 0.00 0.01 10.76 4.6 17.2 1239 SW | 220 0.258 1.61 770 39.9 83 20 8.91 0.00 100 13.4 11.6 556 423 0.0 0.0 2.7 2.7 0.5 106.5 - - - - - - 12.3
5/23/21 76.9 1636 44.0 0617 0.00 0.01 10.76 2.9 15.5 1614 NNW | 337 0.240 1.61 775 36.7 73 23 7.47 0.00 80 12.3 10.4 543 411 0.0 0.0 0.5 0.5 0.5 70.5 - - - - - - 12.3
5/22/21 74.2 1507 39.1 0516 0.00 0.01 10.76 4.0 18.5 1648 SW | 227 0.207 1.62 626 35.5 85 19 3.03 0.00 60 10.4 6.6 531 401 0.0 0.0 5.9 5.9 0.5 39.0 - - - - - - 12.3
5/21/21 68.4 1616 33.8 0608 0.00 0.01 10.76 3.5 18.2 1225 NNE | 17 0.215 1.61 772 34.6 97 22 0.00 0.00 70 6.5 1.1 520 394 0.0 0.0 6.6 6.6 2.0 5.6 - - - - - - 12.2
5/20/21 62.9 1432 35.2 0615 0.01 0.01 10.76 4.9 19.8 1427 NW | 325 0.211 1.66 788 32.2 91 25 0.00 0.00 80 3.7 0.0 514 393 0.0 0.0 10.3 10.3 5.5 0.0 0.01 1942 0.01 1956 0.01 2041 12.3
Max 104.7 - 57.7 - 0.01 0.01 - 5.4 21.9 - - 0.330 - 825 54.1 97 35 10.86 7.31 - 31.0 30.3 - - 0.0 0.0 10.3 10.3 5.5 419.3 - - - - - - 12.3
Avg - - - - - 0.00 - 3.9 - - - - - - 41.4 - - 4.76 0.85 - 16.8 15.4 - - 0.0 0.0 1.6 1.6 -5.4 - - - - - - - -
Min 62.9 - 33.8 - 0.00 0.00 - 2.9 13.2 - - 0.207 - 626 32.2 63 6 0.00 0.00 - 3.7 0.0 - - 0.0 0.0 0.0 0.0 -18.0 0.0 - - - - - - 12.2
Total - - - - - - - - - - - - - - - - - 142.89 25.62 - 503.4 462.8 - - 0.0 0.0 49.4 49.4 -161.5 - - - - - - - -

Bell Hill-West Climate Summary

Current Yeaer

Current Year | Showing 1/1/21 - 6/18/21
as of 6/19/21 5:26 PM PDT
Temperature (°F) Precip (in) Days
Month Days Avg Max Avg Min Max Max Min Min Total Daily Min Temp < 28 Daily Min Temp < 32 Daily Max Temp > 90 Daily Max Temp > 100 Daily Rain > 0.01 Daily Rain > 0.1
Jan 2021 31 56.2 33.9 74.9 20.1 3.55 5 12 0 0 13 5
Feb 2021 28 60.7 32.6 72.9 26.7 1.79 3 15 0 0 10 5
Mar 2021 31 61 32.2 77.4 26.6 1.87 2 17 0 0 6 5
Apr 2021 30 73 36.9 86.1 31.5 0.15 0 2 0 0 2 1
May 2021 31 80.7 44.1 101 33.8 0.01 0 0 2 1 0 0
Jun 2021 18 85.2 49.5 104.7 37.1 0 0 0 6 2 0 0
Total 169 - - - - 7.37 10 46 8 3 31 16
Average 28.2 69.5 38.2 - - 1.23 1.7 7.7 1.3 0.5 5.2 2.7
Maximum 31 85.2 49.5 104.7 - 3.55 5 17 6 2 13 5
Minimum 18 56.2 32.2 - 20.1 0 0 0 0 0 0 0

Bell Hill-West Climate Summary

Last Year

Last Year | Showing 1/1/20 - 12/31/20
as of 6/19/21 5:26 PM PDT
Temperature (°F) Precip (in) Days
Month Days Avg Max Avg Min Max Max Min Min Total Daily Min Temp < 28 Daily Min Temp < 32 Daily Max Temp > 90 Daily Max Temp > 100 Daily Rain > 0.01 Daily Rain > 0.1
Jan 2020 31 55 34.1 69.6 25.8 2.38 3 13 0 0 13 6
Feb 2020 29 66.1 30.9 76.7 23.5 0 4 17 0 0 0 0
Mar 2020 31 59.8 34 80.6 26.6 1.44 2 11 0 0 9 4
Apr 2020 30 70.4 41.2 85.7 27.8 0.84 1 4 0 0 4 3
May 2020 31 76.6 45 95.7 32.9 1.22 0 0 5 0 6 4
Jun 2020 30 85.9 51.7 102.7 36.9 0 0 0 12 1 0 0
Jul 2020 31 92.7 54.5 98.2 45.7 0 0 0 25 0 0 0
Aug 2020 31 93.8 57.2 102.3 49.2 0.12 0 0 27 3 2 0
Sep 2020 30 89.3 50.8 107.8 42.2 0 0 0 12 3 0 0
Oct 2020 31 84.9 43.2 96.4 34.6 0 0 0 11 0 0 0
Nov 2020 30 63.9 31.4 84.5 21.4 0.61 11 18 0 0 3 2
Dec 2020 31 58.7 30.3 73.3 23.1 2.66 13 23 0 0 8 6
Total 366 - - - - 9.27 34 86 92 7 45 25
Average 30.5 74.7 42 - - 0.77 2.8 7.2 7.7 0.6 3.8 2.1
Maximum 31 93.8 57.2 107.8 - 2.66 13 23 27 3 13 6
Minimum 29 55 30.3 - 21.4 0 0 0 0 0 0 0
Calm: 1.0%
Calm: 0.0%